createdAt,value
2018-05-03T00:00:35.821Z,1007.5
2018-05-03T00:01:45.080Z,1007.54
2018-05-03T00:02:54.862Z,1007.49
2018-05-03T00:04:04.606Z,1007.53
2018-05-03T00:05:14.338Z,1007.52
2018-05-03T00:06:24.127Z,1007.53
2018-05-03T00:07:33.883Z,1007.55
2018-05-03T00:08:43.063Z,1007.56
2018-05-03T00:09:52.477Z,1007.56
2018-05-03T00:11:01.380Z,1007.53
2018-05-03T00:12:11.059Z,1007.53
2018-05-03T00:13:20.479Z,1007.51
2018-05-03T00:14:29.896Z,1007.54
2018-05-03T00:15:39.320Z,1007.49
2018-05-03T00:16:48.978Z,1007.49
2018-05-03T00:17:58.653Z,1007.47
2018-05-03T00:19:07.850Z,1007.53
2018-05-03T00:20:17.552Z,1007.53
2018-05-03T00:21:26.712Z,1007.59
2018-05-03T00:22:36.387Z,1007.54
2018-05-03T00:23:45.829Z,1007.59
2018-05-03T00:24:54.982Z,1007.61
2018-05-03T00:26:04.419Z,1007.63
2018-05-03T00:27:14.172Z,1007.67
2018-05-03T00:28:23.352Z,1007.63
2018-05-03T00:29:32.512Z,1007.63
2018-05-03T00:30:41.926Z,1007.65
2018-05-03T00:31:51.354Z,1007.65
2018-05-03T00:33:00.776Z,1007.73
2018-05-03T00:34:10.458Z,1007.72
2018-05-03T00:35:19.423Z,1007.77
2018-05-03T00:36:28.835Z,1007.75
2018-05-03T00:37:37.996Z,1007.73
2018-05-03T00:38:46.911Z,1007.73
2018-05-03T00:39:56.093Z,1007.72
2018-05-03T00:41:05.253Z,1007.71
2018-05-03T00:42:15.179Z,1007.68
2018-05-03T00:43:24.950Z,1007.68
2018-05-03T00:44:34.618Z,1007.68
2018-05-03T00:45:44.564Z,1007.69
2018-05-03T00:46:53.983Z,1007.7
2018-05-03T00:48:03.144Z,1007.73
2018-05-03T00:49:12.326Z,1007.74
2018-05-03T00:50:20.981Z,1007.74
2018-05-03T00:51:30.404Z,1007.72
2018-05-03T00:52:39.590Z,1007.73
2018-05-03T00:53:49.523Z,1007.71
2018-05-03T00:54:59.203Z,1007.73
2018-05-03T00:56:08.631Z,1007.74
2018-05-03T00:57:17.547Z,1007.75
2018-05-03T00:58:26.953Z,1007.76
2018-05-03T00:59:36.923Z,1007.73
2018-05-03T01:00:46.341Z,1007.76
2018-05-03T01:01:56.281Z,1007.74
2018-05-03T01:03:05.951Z,1007.77
2018-05-03T01:04:15.136Z,1007.78
2018-05-03T01:05:24.580Z,1007.78
2018-05-03T01:06:33.752Z,1007.78
2018-05-03T01:07:42.643Z,1007.79
2018-05-03T01:08:51.803Z,1007.82
2018-05-03T01:10:00.968Z,1007.85
2018-05-03T01:11:10.392Z,1007.84
2018-05-03T01:12:19.297Z,1007.83
2018-05-03T01:13:28.246Z,1007.83
2018-05-03T01:14:37.663Z,1007.83
2018-05-03T01:15:47.117Z,1007.87
2018-05-03T01:16:56.525Z,1007.88
2018-05-03T01:18:05.694Z,1007.9
2018-05-03T01:19:14.658Z,1007.88
2018-05-03T01:20:23.551Z,1007.9
2018-05-03T01:21:33.501Z,1007.91
2018-05-03T01:22:43.195Z,1007.87
2018-05-03T01:23:52.369Z,1007.91
2018-05-03T01:25:01.792Z,1007.94
2018-05-03T01:26:10.681Z,1007.98
2018-05-03T01:27:19.586Z,1007.96
2018-05-03T01:28:29.537Z,1007.96
2018-05-03T01:29:38.975Z,1007.96
2018-05-03T01:30:48.676Z,1007.94
2018-05-03T01:31:57.853Z,1007.92
2018-05-03T01:33:07.328Z,1007.99
2018-05-03T01:34:17.001Z,1007.99
2018-05-03T01:35:26.695Z,1008.05
2018-05-03T01:36:35.852Z,1008.01
2018-05-03T01:37:45.286Z,1008.01
2018-05-03T01:38:54.702Z,1008
2018-05-03T01:40:04.116Z,1008.02
2018-05-03T01:41:13.268Z,1008.02
2018-05-03T01:42:22.725Z,1007.98
2018-05-03T01:43:32.421Z,1008
2018-05-03T01:44:41.586Z,1008.02
2018-05-03T01:45:51.261Z,1008.08
2018-05-03T01:47:00.173Z,1008.15
2018-05-03T01:48:09.332Z,1008.16
2018-05-03T01:49:19.011Z,1008.16
2018-05-03T01:50:28.157Z,1008.15
2018-05-03T01:51:37.318Z,1008.13
2018-05-03T01:52:46.754Z,1008.11
2018-05-03T01:53:56.593Z,1008.15
2018-05-03T01:55:06.027Z,1008.21
2018-05-03T01:56:15.469Z,1008.23
2018-05-03T01:57:25.174Z,1008.27
2018-05-03T01:58:34.855Z,1008.31
2018-05-03T01:59:44.288Z,1008.34
2018-05-03T02:00:53.961Z,1008.34
2018-05-03T02:02:03.375Z,1008.36
2018-05-03T02:03:12.545Z,1008.42
2018-05-03T02:04:22.209Z,1008.4
2018-05-03T02:05:31.691Z,1008.39
2018-05-03T02:06:40.587Z,1008.45
2018-05-03T02:07:49.484Z,1008.45
2018-05-03T02:08:58.662Z,1008.48
2018-05-03T02:10:07.811Z,1008.53
2018-05-03T02:11:16.985Z,1008.56
2018-05-03T02:12:26.149Z,1008.57
2018-05-03T02:13:35.306Z,1008.52
2018-05-03T02:14:44.706Z,1008.56
2018-05-03T02:15:53.878Z,1008.64
2018-05-03T02:17:03.323Z,1008.66
2018-05-03T02:18:12.779Z,1008.64
2018-05-03T02:19:22.706Z,1008.67
2018-05-03T02:20:32.141Z,1008.72
2018-05-03T02:21:41.806Z,1008.7
2018-05-03T02:22:50.717Z,1008.71
2018-05-03T02:24:00.129Z,1008.73
2018-05-03T02:25:09.537Z,1008.76
2018-05-03T02:26:18.735Z,1008.78
2018-05-03T02:27:28.708Z,1008.82
2018-05-03T02:28:38.391Z,1008.81
2018-05-03T02:29:47.077Z,1008.79
2018-05-03T02:30:55.981Z,1008.81
2018-05-03T02:32:05.264Z,1008.84
2018-05-03T02:33:14.686Z,1008.86
2018-05-03T02:34:25.041Z,1008.9
2018-05-03T02:35:34.217Z,1008.9
2018-05-03T02:36:43.386Z,1008.84
2018-05-03T02:37:52.799Z,1008.87
2018-05-03T02:39:02.249Z,1008.86
2018-05-03T02:40:11.696Z,1008.83
2018-05-03T02:41:21.381Z,1008.86
2018-05-03T02:42:30.560Z,1008.87
2018-05-03T02:43:40.237Z,1008.9
2018-05-03T02:44:49.647Z,1008.93
2018-05-03T02:45:59.628Z,1008.91
2018-05-03T02:47:08.544Z,1008.9
2018-05-03T02:48:17.727Z,1008.88
2018-05-03T02:49:27.215Z,1008.85
2018-05-03T02:50:36.638Z,1008.91
2018-05-03T02:51:46.080Z,1008.92
2018-05-03T02:52:55.783Z,1008.95
2018-05-03T02:54:05.475Z,1008.98
2018-05-03T02:55:14.902Z,1008.95
2018-05-03T02:56:24.376Z,1008.97
2018-05-03T02:57:33.284Z,1009.04
2018-05-03T02:58:43.231Z,1009.02
2018-05-03T02:59:52.662Z,1009.06
2018-05-03T03:01:01.829Z,1009.04
2018-05-03T03:02:11.004Z,1009.04
2018-05-03T03:03:20.903Z,1009.07
2018-05-03T03:04:30.347Z,1009.09
2018-05-03T03:05:40.017Z,1009.11
2018-05-03T03:06:49.464Z,1009.19
2018-05-03T03:07:58.611Z,1009.18
2018-05-03T03:09:08.571Z,1009.2
2018-05-03T03:10:18.249Z,1009.2
2018-05-03T03:11:27.396Z,1009.22
2018-05-03T03:12:36.851Z,1009.2
2018-05-03T03:13:46.776Z,1009.23
2018-05-03T03:14:55.684Z,1009.19
2018-05-03T03:16:04.896Z,1009.19
2018-05-03T03:17:14.055Z,1009.18
2018-05-03T03:18:23.458Z,1009.22
2018-05-03T03:19:32.862Z,1009.21
2018-05-03T03:20:42.278Z,1009.23
2018-05-03T03:21:51.735Z,1009.19
2018-05-03T03:23:01.538Z,1009.24
2018-05-03T03:24:10.431Z,1009.26
2018-05-03T03:25:19.847Z,1009.25
2018-05-03T03:26:29.259Z,1009.3
2018-05-03T03:27:38.940Z,1009.32
2018-05-03T03:28:48.604Z,1009.35
2018-05-03T03:29:57.764Z,1009.35
2018-05-03T03:31:07.449Z,1009.4
2018-05-03T03:32:17.146Z,1009.39
2018-05-03T03:33:26.352Z,1009.44
2018-05-03T03:34:35.783Z,1009.48
2018-05-03T03:35:45.457Z,1009.51
2018-05-03T03:36:54.865Z,1009.45
2018-05-03T03:38:04.265Z,1009.46
2018-05-03T03:39:13.453Z,1009.45
2018-05-03T03:40:22.894Z,1009.4
2018-05-03T03:41:32.334Z,1009.4
2018-05-03T03:42:41.758Z,1009.45
2018-05-03T03:43:50.906Z,1009.45
2018-05-03T03:45:00.069Z,1009.49
2018-05-03T03:46:09.758Z,1009.5
2018-05-03T03:47:19.167Z,1009.52
2018-05-03T03:48:28.616Z,1009.51
2018-05-03T03:49:37.818Z,1009.5
2018-05-03T03:50:47.272Z,1009.46
2018-05-03T03:51:56.687Z,1009.47
2018-05-03T03:53:06.376Z,1009.43
2018-05-03T03:54:16.576Z,1009.41
2018-05-03T03:55:26.510Z,1009.45
2018-05-03T03:56:36.210Z,1009.46
2018-05-03T03:57:45.365Z,1009.46
2018-05-03T03:58:55.029Z,1009.47
2018-05-03T04:00:04.505Z,1009.43
2018-05-03T04:01:14.185Z,1009.47
2018-05-03T04:02:23.338Z,1009.48
2018-05-03T04:03:32.502Z,1009.52
2018-05-03T04:04:41.931Z,1009.52
2018-05-03T04:05:51.589Z,1009.5
2018-05-03T04:07:00.994Z,1009.51
2018-05-03T04:08:10.148Z,1009.52
2018-05-03T04:09:19.569Z,1009.56
2018-05-03T04:10:28.996Z,1009.6
2018-05-03T04:11:38.145Z,1009.61
2018-05-03T04:12:47.563Z,1009.6
2018-05-03T04:13:56.992Z,1009.65
2018-05-03T04:15:06.407Z,1009.68
2018-05-03T04:16:15.819Z,1009.72
2018-05-03T04:17:24.983Z,1009.72
2018-05-03T04:18:34.414Z,1009.69
2018-05-03T04:19:43.832Z,1009.69
2018-05-03T04:20:53.256Z,1009.73
2018-05-03T04:22:02.914Z,1009.73
2018-05-03T04:23:12.694Z,1009.68
2018-05-03T04:24:22.381Z,1009.81
2018-05-03T04:25:31.575Z,1009.79
2018-05-03T04:26:41.280Z,1009.82
2018-05-03T04:27:51.288Z,1009.85
2018-05-03T04:29:00.173Z,1009.87
2018-05-03T04:30:09.587Z,1009.81
2018-05-03T04:31:19.284Z,1009.86
2018-05-03T04:32:28.952Z,1009.85
2018-05-03T04:33:38.375Z,1009.89
2018-05-03T04:34:48.052Z,1009.93
2018-05-03T04:35:57.251Z,1009.99
2018-05-03T04:37:06.420Z,1009.99
2018-05-03T04:38:15.910Z,1009.98
2018-05-03T04:39:25.574Z,1010.05
2018-05-03T04:40:34.505Z,1010.11
2018-05-03T04:41:43.415Z,1010.13
2018-05-03T04:42:52.826Z,1010.17
2018-05-03T04:44:01.997Z,1010.17
2018-05-03T04:45:11.425Z,1010.25
2018-05-03T04:46:21.106Z,1010.2
2018-05-03T04:47:30.280Z,1010.29
2018-05-03T04:48:39.734Z,1010.3
2018-05-03T04:49:48.625Z,1010.28
2018-05-03T04:50:58.279Z,1010.35
2018-05-03T04:52:07.440Z,1010.38
2018-05-03T04:53:16.355Z,1010.37
2018-05-03T04:54:26.042Z,1010.38
2018-05-03T04:55:35.702Z,1010.38
2018-05-03T04:56:45.397Z,1010.35
2018-05-03T04:57:54.810Z,1010.38
2018-05-03T04:59:04.732Z,1010.41
2018-05-03T05:00:13.892Z,1010.47
2018-05-03T05:01:23.563Z,1010.49
2018-05-03T05:02:32.462Z,1010.48
2018-05-03T05:03:42.130Z,1010.52
2018-05-03T05:04:51.831Z,1010.57
2018-05-03T05:06:00.701Z,1010.58
2018-05-03T05:07:09.593Z,1010.63
2018-05-03T05:08:18.736Z,1010.65
2018-05-03T05:09:27.918Z,1010.65
2018-05-03T05:10:37.414Z,1010.67
2018-05-03T05:11:46.942Z,1010.7
2018-05-03T05:12:56.609Z,1010.73
2018-05-03T05:14:06.301Z,1010.74
2018-05-03T05:15:15.713Z,1010.8
2018-05-03T05:16:24.883Z,1010.78
2018-05-03T05:17:34.567Z,1010.82
2018-05-03T05:18:43.969Z,1010.86
2018-05-03T05:19:53.137Z,1010.83
2018-05-03T05:21:02.554Z,1010.93
2018-05-03T05:22:11.794Z,1010.88
2018-05-03T05:23:21.205Z,1010.85
2018-05-03T05:24:30.654Z,1010.85
2018-05-03T05:25:40.327Z,1010.81
2018-05-03T05:26:49.986Z,1010.84
2018-05-03T05:27:59.392Z,1010.87
2018-05-03T05:29:08.563Z,1010.91
2018-05-03T05:30:17.986Z,1010.96
2018-05-03T05:31:26.962Z,1010.92
2018-05-03T05:32:36.377Z,1010.98
2018-05-03T05:33:46.038Z,1011
2018-05-03T05:34:54.956Z,1011.05
2018-05-03T05:36:04.116Z,1011.07
2018-05-03T05:37:13.280Z,1011.04
2018-05-03T05:38:22.749Z,1011.08
2018-05-03T05:39:32.616Z,1011.09
2018-05-03T05:40:41.791Z,1011.09
2018-05-03T05:41:51.211Z,1011.06
2018-05-03T05:43:00.361Z,1011.13
2018-05-03T05:44:09.797Z,1011.11
2018-05-03T05:45:19.671Z,1011.21
2018-05-03T05:46:28.595Z,1011.19
2018-05-03T05:47:37.787Z,1011.24
2018-05-03T05:48:47.036Z,1011.23
2018-05-03T05:49:56.452Z,1011.23
2018-05-03T05:51:06.170Z,1011.24
2018-05-03T05:52:16.471Z,1011.24
2018-05-03T05:53:26.243Z,1011.29
2018-05-03T05:54:35.920Z,1011.35
2018-05-03T05:55:44.562Z,1011.35
2018-05-03T05:56:54.235Z,1011.35
2018-05-03T05:58:03.221Z,1011.42
2018-05-03T05:59:12.641Z,1011.42
2018-05-03T06:00:22.055Z,1011.44
2018-05-03T06:01:31.747Z,1011.42
2018-05-03T06:02:41.213Z,1011.42
2018-05-03T06:03:51.242Z,1011.4
2018-05-03T06:05:00.697Z,1011.39
2018-05-03T06:06:10.116Z,1011.37
2018-05-03T06:07:19.782Z,1011.37
2018-05-03T06:08:29.445Z,1011.36
2018-05-03T06:09:38.335Z,1011.34
2018-05-03T06:10:47.246Z,1011.4
2018-05-03T06:11:56.680Z,1011.37
2018-05-03T06:13:05.848Z,1011.36
2018-05-03T06:14:15.504Z,1011.41
2018-05-03T06:15:24.666Z,1011.39
2018-05-03T06:16:34.547Z,1011.45
2018-05-03T06:17:43.703Z,1011.48
2018-05-03T06:18:52.595Z,1011.49
2018-05-03T06:20:02.063Z,1011.48
2018-05-03T06:21:12.081Z,1011.49
2018-05-03T06:22:21.493Z,1011.51
2018-05-03T06:23:30.688Z,1011.49
2018-05-03T06:24:40.366Z,1011.51
2018-05-03T06:25:49.536Z,1011.49
2018-05-03T06:26:59.637Z,1011.51
2018-05-03T06:28:09.072Z,1011.52
2018-05-03T06:29:18.777Z,1011.52
2018-05-03T06:30:27.931Z,1011.52
2018-05-03T06:31:37.111Z,1011.55
2018-05-03T06:32:46.787Z,1011.51
2018-05-03T06:33:56.224Z,1011.52
2018-05-03T06:35:05.726Z,1011.58
2018-05-03T06:36:15.144Z,1011.55
2018-05-03T06:37:24.561Z,1011.54
2018-05-03T06:38:33.756Z,1011.58
2018-05-03T06:39:43.421Z,1011.56
2018-05-03T06:40:53.164Z,1011.6
2018-05-03T06:42:02.317Z,1011.6
2018-05-03T06:43:11.802Z,1011.65
2018-05-03T06:44:21.245Z,1011.61
2018-05-03T06:45:30.700Z,1011.64
2018-05-03T06:46:40.145Z,1011.66
2018-05-03T06:47:49.829Z,1011.69
2018-05-03T06:48:59.051Z,1011.73
2018-05-03T06:50:08.218Z,1011.67
2018-05-03T06:51:17.954Z,1011.7
2018-05-03T06:52:27.493Z,1011.73
2018-05-03T06:53:37.202Z,1011.73
2018-05-03T06:54:46.656Z,1011.73
2018-05-03T06:55:56.335Z,1011.76
2018-05-03T06:57:06.008Z,1011.73
2018-05-03T06:58:15.469Z,1011.78
2018-05-03T06:59:25.169Z,1011.81
2018-05-03T07:00:34.847Z,1011.82
2018-05-03T07:01:44.309Z,1011.85
2018-05-03T07:02:54.262Z,1011.88
2018-05-03T07:04:03.702Z,1011.91
2018-05-03T07:05:13.231Z,1011.87
2018-05-03T07:06:22.914Z,1011.88
2018-05-03T07:07:32.616Z,1011.99
2018-05-03T07:08:41.536Z,1011.97
2018-05-03T07:09:51.240Z,1011.95
2018-05-03T07:11:01.403Z,1011.98
2018-05-03T07:12:11.086Z,1012
2018-05-03T07:13:20.545Z,1011.99
2018-05-03T07:14:29.974Z,1012.09
2018-05-03T07:15:39.408Z,1012.04
2018-05-03T07:16:48.387Z,1012.01
2018-05-03T07:17:57.349Z,1012.01
2018-05-03T07:19:06.539Z,1012.07
2018-05-03T07:20:15.711Z,1012.05
2018-05-03T07:21:24.627Z,1012.09
2018-05-03T07:22:34.416Z,1012.1
2018-05-03T07:23:43.836Z,1012.11
2018-05-03T07:24:53.990Z,1012.15
2018-05-03T07:26:03.403Z,1012.15
2018-05-03T07:27:12.592Z,1012.21
2018-05-03T07:28:22.291Z,1012.22
2018-05-03T07:29:32.062Z,1012.24
2018-05-03T07:30:40.672Z,1012.25
2018-05-03T07:31:50.638Z,1012.23
2018-05-03T07:32:59.829Z,1012.22
2018-05-03T07:34:09.284Z,1012.26
2018-05-03T07:35:18.965Z,1012.15
2018-05-03T07:36:28.417Z,1012.26
2018-05-03T07:37:37.586Z,1012.21
2018-05-03T07:38:46.782Z,1012.29
2018-05-03T07:39:56.209Z,1012.34
2018-05-03T07:41:06.028Z,1012.38
2018-05-03T07:42:15.455Z,1012.41
2018-05-03T07:43:24.625Z,1012.47
2018-05-03T07:44:34.306Z,1012.43
2018-05-03T07:45:43.482Z,1012.41
2018-05-03T07:46:53.019Z,1012.48
2018-05-03T07:48:02.506Z,1012.45
2018-05-03T07:49:12.230Z,1012.5
2018-05-03T07:50:21.647Z,1012.48
2018-05-03T07:51:31.074Z,1012.45
2018-05-03T07:52:40.516Z,1012.5
2018-05-03T07:53:49.952Z,1012.51
2018-05-03T07:54:58.868Z,1012.51
2018-05-03T07:56:08.026Z,1012.56
2018-05-03T07:57:17.632Z,1012.6
2018-05-03T07:58:26.784Z,1012.7
2018-05-03T07:59:36.202Z,1012.64
2018-05-03T08:00:45.709Z,1012.68
2018-05-03T08:01:55.130Z,1012.68
2018-05-03T08:03:05.053Z,1012.74
2018-05-03T08:04:14.203Z,1012.73
2018-05-03T08:05:23.649Z,1012.7
2018-05-03T08:06:33.060Z,1012.72
2018-05-03T08:07:42.498Z,1012.78
2018-05-03T08:08:51.669Z,1012.72
2018-05-03T08:10:01.594Z,1012.72
2018-05-03T08:11:11.274Z,1012.74
2018-05-03T08:12:20.429Z,1012.74
2018-05-03T08:13:29.689Z,1012.73
2018-05-03T08:14:39.373Z,1012.74
2018-05-03T08:15:48.272Z,1012.79
2018-05-03T08:16:57.177Z,1012.78
2018-05-03T08:18:07.179Z,1012.81
2018-05-03T08:19:16.590Z,1012.79
2018-05-03T08:20:26.546Z,1012.82
2018-05-03T08:21:35.451Z,1012.81
2018-05-03T08:22:44.104Z,1012.84
2018-05-03T08:23:53.515Z,1012.82
2018-05-03T08:25:03.192Z,1012.85
2018-05-03T08:26:12.907Z,1012.91
2018-05-03T08:27:22.611Z,1012.91
2018-05-03T08:28:32.048Z,1012.91
2018-05-03T08:29:41.581Z,1012.89
2018-05-03T08:30:50.757Z,1012.94
2018-05-03T08:32:00.685Z,1012.92
2018-05-03T08:33:09.862Z,1012.96
2018-05-03T08:34:19.073Z,1012.97
2018-05-03T08:35:28.266Z,1012.99
2018-05-03T08:36:37.713Z,1012.99
2018-05-03T08:37:47.123Z,1013.03
2018-05-03T08:38:56.277Z,1013.07
2018-05-03T08:40:05.961Z,1013.11
2018-05-03T08:41:14.903Z,1013.14
2018-05-03T08:42:24.354Z,1013.13
2018-05-03T08:43:34.081Z,1013.15
2018-05-03T08:44:43.266Z,1013.14
2018-05-03T08:45:53.203Z,1013.23
2018-05-03T08:47:02.742Z,1013.18
2018-05-03T08:48:12.190Z,1013.16
2018-05-03T08:49:21.424Z,1013.19
2018-05-03T08:50:30.591Z,1013.19
2018-05-03T08:51:40.026Z,1013.19
2018-05-03T08:52:49.713Z,1013.19
2018-05-03T08:53:59.381Z,1013.21
2018-05-03T08:55:08.307Z,1013.2
2018-05-03T08:56:17.463Z,1013.2
2018-05-03T08:57:27.009Z,1013.13
2018-05-03T08:58:35.979Z,1013.21
2018-05-03T08:59:45.431Z,1013.19
2018-05-03T09:00:55.203Z,1013.21
2018-05-03T09:02:05.160Z,1013.23
2018-05-03T09:03:14.900Z,1013.22
2018-05-03T09:04:24.588Z,1013.21
2018-05-03T09:05:34.009Z,1013.21
2018-05-03T09:06:43.709Z,1013.26
2018-05-03T09:07:52.498Z,1013.23
2018-05-03T09:09:02.317Z,1013.24
2018-05-03T09:10:11.995Z,1013.27
2018-05-03T09:11:21.429Z,1013.25
2018-05-03T09:12:30.605Z,1013.29
2018-05-03T09:13:40.537Z,1013.31
2018-05-03T09:14:49.731Z,1013.33
2018-05-03T09:15:59.189Z,1013.33
2018-05-03T09:17:08.346Z,1013.3
2018-05-03T09:18:17.773Z,1013.26
2018-05-03T09:19:26.997Z,1013.29
2018-05-03T09:20:35.901Z,1013.32
2018-05-03T09:21:45.333Z,1013.39
2018-05-03T09:22:54.764Z,1013.34
2018-05-03T09:24:04.225Z,1013.31
2018-05-03T09:25:13.660Z,1013.29
2018-05-03T09:26:22.811Z,1013.3
2018-05-03T09:27:31.715Z,1013.32
2018-05-03T09:28:40.881Z,1013.29
2018-05-03T09:29:50.045Z,1013.29
2018-05-03T09:30:59.210Z,1013.28
2018-05-03T09:32:08.413Z,1013.27
2018-05-03T09:33:17.659Z,1013.3
2018-05-03T09:34:26.569Z,1013.31
2018-05-03T09:35:35.984Z,1013.34
2018-05-03T09:36:45.690Z,1013.24
2018-05-03T09:37:55.061Z,1013.2
2018-05-03T09:39:04.572Z,1013.25
2018-05-03T09:40:14.547Z,1013.22
2018-05-03T09:41:23.461Z,1013.28
2018-05-03T09:42:32.631Z,1013.26
2018-05-03T09:43:42.514Z,1013.31
2018-05-03T09:44:52.010Z,1013.32
2018-05-03T09:46:00.907Z,1013.31
2018-05-03T09:47:10.562Z,1013.27
2018-05-03T09:48:20.247Z,1013.33
2018-05-03T09:49:29.686Z,1013.31
2018-05-03T09:50:39.123Z,1013.32
2018-05-03T09:51:48.829Z,1013.41
2018-05-03T09:52:58.516Z,1013.3
2018-05-03T09:54:08.228Z,1013.48
2018-05-03T09:55:17.662Z,1013.46
2018-05-03T09:56:26.862Z,1013.44
2018-05-03T09:57:36.540Z,1013.45
2018-05-03T09:58:45.942Z,1013.47
2018-05-03T09:59:55.359Z,1013.43
2018-05-03T10:01:05.039Z,1013.39
2018-05-03T10:02:14.481Z,1013.36
2018-05-03T10:03:24.155Z,1013.47
2018-05-03T10:04:33.843Z,1013.45
2018-05-03T10:05:43.934Z,1013.38
2018-05-03T10:06:52.804Z,1013.43
2018-05-03T10:08:01.980Z,1013.43
2018-05-03T10:09:11.663Z,1013.44
2018-05-03T10:10:21.092Z,1013.43
2018-05-03T10:11:30.538Z,1013.43
2018-05-03T10:12:39.961Z,1013.45
2018-05-03T10:13:49.394Z,1013.45
2018-05-03T10:14:58.297Z,1013.39
2018-05-03T10:16:07.471Z,1013.47
2018-05-03T10:17:16.632Z,1013.46
2018-05-03T10:18:26.064Z,1013.45
2018-05-03T10:19:34.969Z,1013.44
2018-05-03T10:20:44.382Z,1013.41
2018-05-03T10:21:54.050Z,1013.4
2018-05-03T10:23:03.516Z,1013.39
2018-05-03T10:24:12.681Z,1013.5
2018-05-03T10:25:21.596Z,1013.42
2018-05-03T10:26:30.505Z,1013.48
2018-05-03T10:27:39.713Z,1013.48
2018-05-03T10:28:49.474Z,1013.45
2018-05-03T10:29:58.494Z,1013.48
2018-05-03T10:31:08.574Z,1013.49
2018-05-03T10:32:17.987Z,1013.46
2018-05-03T10:33:27.439Z,1013.46
2018-05-03T10:34:36.601Z,1013.44
2018-05-03T10:35:45.835Z,1013.46
2018-05-03T10:36:55.848Z,1013.46
2018-05-03T10:38:05.292Z,1013.43
2018-05-03T10:39:14.978Z,1013.42
2018-05-03T10:40:24.706Z,1013.4
2018-05-03T10:41:33.640Z,1013.4
2018-05-03T10:42:43.345Z,1013.45
2018-05-03T10:43:52.815Z,1013.46
2018-05-03T10:45:02.842Z,1013.38
2018-05-03T10:46:11.767Z,1013.4
2018-05-03T10:47:21.444Z,1013.42
2018-05-03T10:48:30.628Z,1013.37
2018-05-03T10:49:40.014Z,1013.41
2018-05-03T10:50:49.194Z,1013.48
2018-05-03T10:51:58.363Z,1013.48
2018-05-03T10:53:07.809Z,1013.51
2018-05-03T10:54:17.503Z,1013.47
2018-05-03T10:55:26.938Z,1013.37
2018-05-03T10:56:36.096Z,1013.35
2018-05-03T10:57:45.013Z,1013.33
2018-05-03T10:58:54.205Z,1013.32
2018-05-03T11:00:03.624Z,1013.27
2018-05-03T11:01:12.857Z,1013.25
2018-05-03T11:02:22.537Z,1013.27
2018-05-03T11:03:32.261Z,1013.24
2018-05-03T11:04:41.678Z,1013.22
2018-05-03T11:05:51.336Z,1013.21
2018-05-03T11:07:00.787Z,1013.18
2018-05-03T11:08:10.232Z,1013.23
2018-05-03T11:09:19.952Z,1013.24
2018-05-03T11:10:29.391Z,1013.17
2018-05-03T11:11:38.306Z,1013.26
2018-05-03T11:12:47.218Z,1013.19
2018-05-03T11:13:56.380Z,1013.23
2018-05-03T11:15:05.797Z,1013.22
2018-05-03T11:16:15.210Z,1013.16
2018-05-03T11:17:25.181Z,1013.24
2018-05-03T11:18:34.605Z,1013.22
2018-05-03T11:19:43.511Z,1013.2
2018-05-03T11:20:52.701Z,1013.24
2018-05-03T11:22:02.424Z,1013.16
2018-05-03T11:23:11.854Z,1013.23
2018-05-03T11:24:21.345Z,1013.2
2018-05-03T11:25:30.805Z,1013.25
2018-05-03T11:26:40.747Z,1013.2
2018-05-03T11:27:50.426Z,1013.23
2018-05-03T11:28:59.849Z,1013.35
2018-05-03T11:30:09.038Z,1013.36
2018-05-03T11:31:18.466Z,1013.34
2018-05-03T11:32:27.678Z,1013.3
2018-05-03T11:33:37.095Z,1013.32
2018-05-03T11:34:47.026Z,1013.3
2018-05-03T11:35:56.471Z,1013.28
2018-05-03T11:37:06.148Z,1013.39
2018-05-03T11:38:16.086Z,1013.4
2018-05-03T11:39:25.294Z,1013.31
2018-05-03T11:40:34.785Z,1013.34
2018-05-03T11:41:44.486Z,1013.36
2018-05-03T11:42:53.672Z,1013.41
2018-05-03T11:44:03.188Z,1013.45
2018-05-03T11:45:12.609Z,1013.38
2018-05-03T11:46:21.786Z,1013.39
2018-05-03T11:47:30.996Z,1013.43
2018-05-03T11:48:39.655Z,1013.43
2018-05-03T11:49:49.339Z,1013.42
2018-05-03T11:50:59.034Z,1013.47
2018-05-03T11:52:07.927Z,1013.46
2018-05-03T11:53:17.172Z,1013.53
2018-05-03T11:54:26.578Z,1013.51
2018-05-03T11:55:35.811Z,1013.52
2018-05-03T11:56:45.749Z,1013.47
2018-05-03T11:57:54.902Z,1013.5
2018-05-03T11:59:04.349Z,1013.53
2018-05-03T12:00:13.745Z,1013.57
2018-05-03T12:01:22.913Z,1013.55
2018-05-03T12:02:32.446Z,1013.52
2018-05-03T12:03:41.881Z,1013.52
2018-05-03T12:04:51.023Z,1013.56
2018-05-03T12:06:00.524Z,1013.53
2018-05-03T12:07:10.459Z,1013.53
2018-05-03T12:08:19.890Z,1013.54
2018-05-03T12:09:29.594Z,1013.52
2018-05-03T12:10:39.270Z,1013.56
2018-05-03T12:11:49.012Z,1013.51
2018-05-03T12:12:58.823Z,1013.5
2018-05-03T12:14:08.003Z,1013.62
2018-05-03T12:15:16.935Z,1013.57
2018-05-03T12:16:26.104Z,1013.63
2018-05-03T12:17:35.793Z,1013.67
2018-05-03T12:18:45.260Z,1013.68
2018-05-03T12:19:54.240Z,1013.66
2018-05-03T12:21:03.666Z,1013.65
2018-05-03T12:22:12.823Z,1013.62
2018-05-03T12:23:22.227Z,1013.65
2018-05-03T12:24:31.384Z,1013.67
2018-05-03T12:25:41.061Z,1013.67
2018-05-03T12:26:50.746Z,1013.71
2018-05-03T12:28:00.159Z,1013.64
2018-05-03T12:29:09.067Z,1013.66
2018-05-03T12:30:18.780Z,1013.64
2018-05-03T12:31:28.717Z,1013.73
2018-05-03T12:32:38.403Z,1013.75
2018-05-03T12:33:47.860Z,1013.64
2018-05-03T12:34:57.550Z,1013.67
2018-05-03T12:36:07.583Z,1013.7
2018-05-03T12:37:17.688Z,1013.72
2018-05-03T12:38:26.601Z,1013.69
2018-05-03T12:39:35.777Z,1013.69
2018-05-03T12:40:44.951Z,1013.68
2018-05-03T12:41:54.357Z,1013.66
2018-05-03T12:43:03.797Z,1013.76
2018-05-03T12:44:12.474Z,1013.73
2018-05-03T12:45:22.186Z,1013.74
2018-05-03T12:46:31.352Z,1013.67
2018-05-03T12:47:40.760Z,1013.71
2018-05-03T12:48:50.430Z,1013.68
2018-05-03T12:49:59.601Z,1013.67
2018-05-03T12:51:09.039Z,1013.68
2018-05-03T12:52:18.694Z,1013.63
2018-05-03T12:53:28.124Z,1013.64
2018-05-03T12:54:38.069Z,1013.6
2018-05-03T12:55:47.488Z,1013.59
2018-05-03T12:56:56.914Z,1013.63
2018-05-03T12:58:08.872Z,1013.65
2018-05-03T12:59:20.353Z,1013.6
2018-05-03T13:00:30.600Z,1013.62
2018-05-03T13:01:40.024Z,1013.64
2018-05-03T13:02:49.214Z,1013.67
2018-05-03T13:03:58.113Z,1013.58
2018-05-03T13:05:07.532Z,1013.58
2018-05-03T13:06:16.440Z,1013.56
2018-05-03T13:07:25.597Z,1013.58
2018-05-03T13:08:34.790Z,1013.56
2018-05-03T13:09:44.484Z,1013.54
2018-05-03T13:10:53.901Z,1013.56
2018-05-03T13:12:03.315Z,1013.6
2018-05-03T13:13:12.738Z,1013.64
2018-05-03T13:14:22.250Z,1013.6
2018-05-03T13:15:31.936Z,1013.58
2018-05-03T13:16:40.838Z,1013.57
2018-05-03T13:17:50.299Z,1013.59
2018-05-03T13:18:59.982Z,1013.51
2018-05-03T13:20:09.796Z,1013.57
2018-05-03T13:21:19.794Z,1013.56
2018-05-03T13:22:28.963Z,1013.62
2018-05-03T13:23:38.392Z,1013.59
2018-05-03T13:24:47.906Z,1013.55
2018-05-03T13:25:57.351Z,1013.59
2018-05-03T13:27:06.573Z,1013.57
2018-05-03T13:28:16.026Z,1013.5
2018-05-03T13:29:25.722Z,1013.49
2018-05-03T13:30:34.881Z,1013.52
2018-05-03T13:31:43.775Z,1013.52
2018-05-03T13:32:53.227Z,1013.58
2018-05-03T13:34:02.172Z,1013.53
2018-05-03T13:35:11.856Z,1013.58
2018-05-03T13:36:21.274Z,1013.5
2018-05-03T13:37:30.897Z,1013.48
2018-05-03T13:38:40.313Z,1013.48
2018-05-03T13:39:49.512Z,1013.56
2018-05-03T13:40:59.252Z,1013.56
2018-05-03T13:42:08.514Z,1013.49
2018-05-03T13:43:18.534Z,1013.51
2018-05-03T13:44:27.265Z,1013.55
2018-05-03T13:45:36.794Z,1013.5
2018-05-03T13:46:46.561Z,1013.44
2018-05-03T13:47:56.556Z,1013.49
2018-05-03T13:49:06.060Z,1013.46
2018-05-03T13:50:15.091Z,1013.48
2018-05-03T13:51:24.275Z,1013.49
2018-05-03T13:52:33.172Z,1013.53
2018-05-03T13:53:42.079Z,1013.5
2018-05-03T13:54:51.225Z,1013.51
2018-05-03T13:56:00.458Z,1013.55
2018-05-03T13:57:09.967Z,1013.52
2018-05-03T13:58:19.660Z,1013.49
2018-05-03T13:59:29.405Z,1013.5
2018-05-03T14:00:38.856Z,1013.47
2018-05-03T14:01:48.813Z,1013.54
2018-05-03T14:02:58.292Z,1013.5